Time;durP1;ratioP1;P1;durP2;ratioP2;P2;SDS_P1;SDS_P2;PMS_P1;PMS_P2;Temp;Humidity;BMP_temperature;BMP_pressure;BME280_temperature;BME280_humidity;BME280_pressure;Samples;Min_cycle;Max_cycle;Signal;HPM_P1;HPM_P2
2021/08/29 00:02:07;;;;;;;0.98;0.80;;;20.50;96.70;;;;;;4967500;28;20060;-77
2021/08/29 00:04:37;;;;;;;2.45;0.75;;;20.60;96.70;;;;;;4963524;28;20062;-77
2021/08/29 00:07:05;;;;;;;1.55;0.75;;;20.50;96.70;;;;;;4965608;28;20098;-78
2021/08/29 00:09:33;;;;;;;1.77;0.88;;;20.60;96.70;;;;;;4947249;28;20598;-77
2021/08/29 00:12:01;;;;;;;1.48;0.80;;;20.60;96.70;;;;;;4962999;28;20421;-77
2021/08/29 00:14:29;;;;;;;3.30;1.08;;;20.70;96.70;;;;;;4967625;28;20039;-78
2021/08/29 00:16:58;;;;;;;1.73;1.00;;;20.60;96.70;;;;;;4965913;28;20082;-77
2021/08/29 00:19:26;;;;;;;2.40;1.00;;;20.30;96.70;;;;;;4965910;28;20384;-77
2021/08/29 00:21:56;;;;;;;3.80;1.15;;;20.20;96.70;;;;;;4968424;28;20046;-77
2021/08/29 00:24:24;;;;;;;2.63;0.93;;;20.20;96.70;;;;;;4956454;28;20068;-77
2021/08/29 00:26:52;;;;;;;3.20;1.20;;;20.40;96.70;;;;;;4963216;28;20141;-78
2021/08/29 00:29:20;;;;;;;1.30;0.90;;;20.30;96.70;;;;;;4963607;28;20050;-78
2021/08/29 00:31:48;;;;;;;3.08;1.10;;;20.20;96.70;;;;;;4963869;28;20147;-77
2021/08/29 00:34:16;;;;;;;1.92;1.17;;;20.00;96.70;;;;;;4964392;28;20074;-77
2021/08/29 00:36:44;;;;;;;1.67;1.05;;;20.20;96.70;;;;;;4963615;28;20509;-77
2021/08/29 00:39:14;;;;;;;1.45;1.10;;;20.20;96.70;;;;;;4966630;28;20073;-77
2021/08/29 00:41:42;;;;;;;3.58;1.25;;;20.20;96.70;;;;;;4961746;28;20528;-77
2021/08/29 00:44:11;;;;;;;1.50;1.02;;;20.20;96.70;;;;;;4961443;28;20305;-77
2021/08/29 00:46:39;;;;;;;1.83;0.90;;;20.20;96.70;;;;;;4958536;28;20424;-78
2021/08/29 00:49:10;;;;;;;1.38;0.90;;;20.20;96.70;;;;;;4962549;28;20050;-77
2021/08/29 00:51:39;;;;;;;2.58;1.10;;;20.20;96.70;;;;;;4968993;28;20477;-77
2021/08/29 00:54:07;;;;;;;1.98;1.25;;;20.10;96.70;;;;;;4976888;28;20046;-77
2021/08/29 00:56:37;;;;;;;2.60;1.10;;;20.00;96.70;;;;;;4964520;28;20074;-77
2021/08/29 00:59:10;;;;;;;4.95;1.02;;;20.20;96.70;;;;;;4948519;28;20436;-78
2021/08/29 01:01:52;;;;;;;1.67;1.08;;;20.20;96.70;;;;;;4962212;28;20674;-77
2021/08/29 01:04:24;;;;;;;3.00;1.05;;;20.20;96.70;;;;;;4943452;28;20055;-78
2021/08/29 01:07:01;;;;;;;1.60;1.00;;;20.10;96.70;;;;;;4975510;28;20082;-77
2021/08/29 01:09:42;;;;;;;;;;;20.20;96.70;;;;;;4955520;28;20043;-77
2021/08/29 01:12:12;;;;;;;1.35;1.08;;;20.30;96.70;;;;;;4987374;28;19930;-78
2021/08/29 01:14:52;;;;;;;2.60;1.25;;;20.10;96.70;;;;;;4962787;28;20054;-78
2021/08/29 01:17:27;;;;;;;1.58;1.08;;;20.00;96.70;;;;;;4948029;28;20416;-77
2021/08/29 01:20:03;;;;;;;1.98;0.95;;;19.90;96.70;;;;;;4963881;28;20043;-77
2021/08/29 01:22:35;;;;;;;2.85;1.10;;;19.90;96.70;;;;;;4964771;28;20039;-77
2021/08/29 01:25:07;;;;;;;1.95;0.93;;;19.80;96.70;;;;;;4961106;28;20204;-77
2021/08/29 01:27:46;;;;;;;3.85;1.42;;;19.80;96.70;;;;;;4967334;28;20149;-77
2021/08/29 01:30:17;;;;;;;2.45;0.90;;;19.60;96.70;;;;;;4963923;28;20094;-77
2021/08/29 01:32:49;;;;;;;2.58;0.82;;;19.70;96.70;;;;;;4975838;28;20644;-78
2021/08/29 01:35:18;;;;;;;1.35;0.90;;;19.80;96.70;;;;;;4956502;28;20472;-78
2021/08/29 01:38:05;;;;;;;3.17;1.38;;;19.90;96.70;;;;;;4959300;28;20055;-78
2021/08/29 01:40:37;;;;;;;3.58;1.00;;;19.80;96.70;;;;;;4961210;28;20046;-78
2021/08/29 01:43:06;;;;;;;1.73;1.05;;;19.80;96.70;;;;;;4962818;28;20462;-78
2021/08/29 01:45:37;;;;;;;1.75;0.95;;;19.90;96.70;;;;;;4947526;28;20042;-79
2021/08/29 01:48:06;;;;;;;3.25;0.90;;;19.90;96.70;;;;;;4968888;28;20054;-79
2021/08/29 01:50:49;;;;;;;2.25;0.98;;;20.00;96.70;;;;;;4969447;28;20043;-79
2021/08/29 01:53:36;;;;;;;2.53;1.20;;;20.10;96.70;;;;;;4961817;28;20063;-79
2021/08/29 01:56:23;;;;;;;2.38;1.10;;;20.00;96.70;;;;;;4963131;28;20532;-79
2021/08/29 01:58:55;;;;;;;2.40;0.85;;;20.00;96.70;;;;;;4945187;28;20051;-79
2021/08/29 02:01:28;;;;;;;2.40;1.00;;;19.90;96.70;;;;;;4944174;28;20508;-79
2021/08/29 02:04:02;;;;;;;1.63;0.82;;;19.90;96.70;;;;;;4957082;28;20557;-78
2021/08/29 02:06:38;;;;;;;1.67;0.95;;;20.00;96.70;;;;;;4966634;28;20065;-79
2021/08/29 02:09:10;;;;;;;1.77;0.93;;;20.00;96.70;;;;;;4959355;28;20130;-80
2021/08/29 02:11:49;;;;;;;3.33;0.77;;;19.90;96.70;;;;;;4952907;28;20058;-80
2021/08/29 02:14:29;;;;;;;2.20;0.80;;;19.90;96.70;;;;;;4964828;28;20497;-80
2021/08/29 02:17:00;;;;;;;1.77;0.73;;;19.80;96.70;;;;;;4974155;28;20052;-80
2021/08/29 02:19:32;;;;;;;1.85;1.08;;;19.80;96.70;;;;;;4962313;28;20174;-80
2021/08/29 02:22:06;;;;;;;2.65;0.85;;;19.60;96.70;;;;;;4945973;28;20074;-79
2021/08/29 02:24:37;;;;;;;3.35;1.15;;;19.60;96.70;;;;;;4964198;28;20062;-79
2021/08/29 02:27:11;;;;;;;2.47;0.80;;;19.60;96.70;;;;;;4946566;28;20054;-79
2021/08/29 02:29:41;;;;;;;1.35;0.80;;;19.70;96.70;;;;;;4967133;28;20046;-79
2021/08/29 02:32:15;;;;;;;2.80;0.70;;;19.50;96.70;;;;;;4945738;28;20039;-79
2021/08/29 02:34:48;;;;;;;2.50;0.82;;;19.60;96.70;;;;;;4949882;28;20043;-79
2021/08/29 02:37:25;;;;;;;2.60;1.00;;;19.40;96.70;;;;;;4948359;28;20149;-79
2021/08/29 02:40:00;;;;;;;2.10;0.85;;;19.20;96.70;;;;;;4948620;28;20054;-79
2021/08/29 02:42:31;;;;;;;1.90;0.70;;;19.10;96.70;;;;;;4961169;28;20445;-79
2021/08/29 02:45:09;;;;;;;3.33;1.02;;;19.00;96.70;;;;;;4958037;28;20654;-79
2021/08/29 02:47:41;;;;;;;2.30;0.90;;;19.20;96.70;;;;;;4962155;28;20054;-79
2021/08/29 02:50:09;;;;;;;2.17;1.00;;;19.10;96.70;;;;;;4959940;28;20516;-79
2021/08/29 02:52:44;;;;;;;1.58;0.85;;;19.10;96.70;;;;;;4963151;28;20292;-79
2021/08/29 02:55:15;;;;;;;1.75;0.82;;;19.10;96.70;;;;;;4958710;28;20149;-80
2021/08/29 02:57:46;;;;;;;4.53;0.85;;;18.90;96.70;;;;;;4960949;28;20093;-79
2021/08/29 03:00:33;;;;;;;1.55;1.00;;;18.80;96.70;;;;;;4963141;28;20238;-79
2021/08/29 03:03:11;;;;;;;;;;;18.80;96.70;;;;;;4946744;28;20062;-79
2021/08/29 03:05:41;;;;;;;3.65;0.80;;;18.70;96.70;;;;;;4959379;28;19926;-78
2021/08/29 03:08:10;;;;;;;1.48;0.80;;;18.60;96.70;;;;;;4961992;28;20043;-77
2021/08/29 03:10:40;;;;;;;1.17;0.70;;;18.80;96.70;;;;;;4965000;28;20042;-77
2021/08/29 03:13:09;;;;;;;2.47;0.75;;;18.70;96.70;;;;;;4964311;28;20271;-78
2021/08/29 03:15:43;;;;;;;1.33;0.65;;;18.60;96.70;;;;;;4971156;28;20054;-77
2021/08/29 03:22:43;;;;;;;2.47;0.80;;;19.00;96.70;;;;;;4960433;28;20038;-77
2021/08/29 03:25:12;;;;;;;3.15;0.95;;;19.00;96.70;;;;;;4958652;28;20049;-77
2021/08/29 03:27:42;;;;;;;4.28;0.80;;;19.00;96.70;;;;;;4958513;28;20059;-77
2021/08/29 03:30:12;;;;;;;1.23;0.85;;;18.90;96.70;;;;;;4965650;28;20038;-78
2021/08/29 03:32:44;;;;;;;1.20;0.70;;;18.70;96.70;;;;;;4945684;28;20071;-77
2021/08/29 03:35:25;;;;;;;1.48;1.00;;;18.70;96.70;;;;;;4968092;28;20050;-78
2021/08/29 03:37:58;;;;;;;1.63;0.95;;;18.50;96.70;;;;;;4962188;28;20047;-77
2021/08/29 03:40:28;;;;;;;2.28;0.80;;;18.20;96.70;;;;;;4967407;28;20608;-77
2021/08/29 03:42:57;;;;;;;2.35;0.93;;;18.10;96.70;;;;;;4965705;28;20046;-77
2021/08/29 03:45:26;;;;;;;1.67;0.88;;;17.90;96.70;;;;;;4958121;28;20105;-77
2021/08/29 03:47:57;;;;;;;2.10;0.85;;;17.80;96.70;;;;;;4963468;28;20465;-77
2021/08/29 03:50:26;;;;;;;1.77;0.80;;;17.90;96.70;;;;;;4963441;28;20046;-78
2021/08/29 03:52:57;;;;;;;2.08;1.15;;;17.90;96.70;;;;;;4962344;28;20157;-77
2021/08/29 03:55:44;;;;;;;1.63;0.98;;;17.80;96.70;;;;;;4966509;28;20042;-77
2021/08/29 03:58:13;;;;;;;2.20;1.38;;;17.80;96.70;;;;;;4959315;28;20141;-77
2021/08/29 04:00:46;;;;;;;4.10;1.35;;;17.80;96.70;;;;;;4948159;28;20133;-79
2021/08/29 04:03:15;;;;;;;2.15;1.42;;;17.90;96.70;;;;;;4971992;28;20932;-77
2021/08/29 04:05:59;;;;;;;2.67;1.15;;;17.90;96.70;;;;;;4968345;28;20098;-77
2021/08/29 04:08:35;;;;;;;1.30;1.08;;;18.00;96.70;;;;;;4967384;28;20055;-77
2021/08/29 04:11:07;;;;;;;4.90;1.40;;;18.10;96.70;;;;;;4964287;28;20101;-77
2021/08/29 04:13:39;;;;;;;2.55;1.17;;;18.30;96.70;;;;;;4963524;28;20043;-77
2021/08/29 04:16:28;;;;;;;2.15;0.82;;;18.30;96.70;;;;;;4955446;28;20560;-78
2021/08/29 04:19:07;;;;;;;2.83;1.30;;;18.40;96.70;;;;;;4962471;28;20034;-77
2021/08/29 04:21:38;;;;;;;2.30;0.98;;;18.50;96.70;;;;;;4962219;28;20461;-77
2021/08/29 04:24:10;;;;;;;1.75;0.90;;;18.30;96.70;;;;;;4959249;28;20075;-78
2021/08/29 04:26:47;;;;;;;1.80;0.90;;;18.30;96.70;;;;;;4960520;28;20193;-77
2021/08/29 04:29:15;;;;;;;2.83;0.98;;;18.30;96.70;;;;;;4959046;28;20091;-77
2021/08/29 04:31:49;;;;;;;2.20;1.30;;;18.10;96.70;;;;;;4961728;28;20105;-79
2021/08/29 04:34:19;;;;;;;1.48;1.05;;;18.20;96.70;;;;;;4964545;28;20481;-78
2021/08/29 04:37:07;;;;;;;1.08;0.70;;;18.40;96.70;;;;;;4955698;28;20039;-77
2021/08/29 04:39:50;;;;;;;3.55;1.00;;;18.30;96.70;;;;;;4965012;28;20424;-78
2021/08/29 04:42:22;;;;;;;1.50;0.88;;;18.30;96.70;;;;;;4963154;28;20058;-77
2021/08/29 04:44:52;;;;;;;3.80;1.00;;;18.40;96.70;;;;;;4976851;28;20488;-78
2021/08/29 04:47:21;;;;;;;1.65;0.93;;;18.50;96.70;;;;;;4971515;28;20133;-77
2021/08/29 04:49:56;;;;;;;1.25;0.88;;;18.50;96.70;;;;;;4961740;28;20050;-78
2021/08/29 04:52:26;;;;;;;1.27;0.80;;;18.50;96.70;;;;;;4955152;28;20055;-77
2021/08/29 04:55:00;;;;;;;1.63;0.80;;;18.60;96.70;;;;;;4965494;28;20051;-78
2021/08/29 04:57:31;;;;;;;2.10;0.73;;;18.50;96.70;;;;;;4958904;28;20055;-77
2021/08/29 05:00:00;;;;;;;2.83;0.70;;;18.50;96.70;;;;;;4963584;28;20055;-77
2021/08/29 05:02:30;;;;;;;1.35;0.82;;;18.60;96.70;;;;;;4963923;28;20938;-78
2021/08/29 05:05:00;;;;;;;2.05;0.82;;;18.60;96.70;;;;;;4959595;28;20051;-77
2021/08/29 05:07:29;;;;;;;1.67;0.98;;;18.50;96.70;;;;;;4956589;28;20646;-77
2021/08/29 05:10:00;;;;;;;1.33;0.85;;;18.60;96.70;;;;;;4981338;28;20051;-77
2021/08/29 05:12:37;;;;;;;4.53;1.10;;;18.60;96.70;;;;;;4962908;28;20391;-78
2021/08/29 05:15:06;;;;;;;3.05;0.73;;;18.60;96.70;;;;;;4962891;28;20391;-77
2021/08/29 05:17:34;;;;;;;2.22;0.90;;;18.60;96.70;;;;;;4978403;28;20051;-77
2021/08/29 05:20:03;;;;;;;3.00;0.82;;;18.50;96.70;;;;;;4954844;28;20167;-77
2021/08/29 05:22:54;;;;;;;2.22;0.77;;;18.50;96.70;;;;;;4953630;28;20050;-77
2021/08/29 05:25:43;;;;;;;3.13;0.90;;;18.50;96.70;;;;;;4962756;28;20054;-77
2021/08/29 05:28:11;;;;;;;1.70;0.82;;;18.50;96.70;;;;;;4963965;28;20611;-77
2021/08/29 05:30:39;;;;;;;2.53;1.10;;;18.50;96.70;;;;;;4971170;28;20053;-77
2021/08/29 05:33:10;;;;;;;2.38;1.10;;;18.50;96.70;;;;;;4962154;28;20094;-77
2021/08/29 05:35:39;;;;;;;2.20;0.70;;;18.50;96.70;;;;;;4967266;28;20630;-77
2021/08/29 05:38:07;;;;;;;3.95;1.10;;;18.50;96.70;;;;;;4963254;28;20085;-77
2021/08/29 05:41:10;;;;;;;2.35;1.20;;;18.50;96.70;;;;;;4921248;28;20079;-79
2021/08/29 05:43:45;;;;;;;3.25;0.90;;;18.70;96.70;;;;;;4965871;28;20047;-77
2021/08/29 05:46:27;;;;;;;2.95;0.70;;;18.60;96.70;;;;;;4948602;28;20046;-77
2021/08/29 05:48:56;;;;;;;2.47;1.00;;;18.60;96.70;;;;;;4960768;28;20055;-78
2021/08/29 05:51:24;;;;;;;1.48;0.63;;;18.60;96.70;;;;;;4961347;28;20051;-77
2021/08/29 05:53:53;;;;;;;1.90;0.60;;;18.60;96.70;;;;;;4957883;28;20046;-77
2021/08/29 05:56:24;;;;;;;2.85;1.08;;;18.70;96.70;;;;;;4960435;28;20050;-77
2021/08/29 05:58:55;;;;;;;2.08;1.10;;;18.90;96.70;;;;;;4963187;28;20049;-77
2021/08/29 06:01:23;;;;;;;0.95;0.50;;;18.90;96.70;;;;;;4961373;28;20046;-78
2021/08/29 06:03:52;;;;;;;1.25;0.63;;;18.90;96.70;;;;;;4945843;28;20146;-77
2021/08/29 06:06:39;;;;;;;1.70;0.88;;;19.00;96.70;;;;;;4956514;28;20057;-77
2021/08/29 06:09:08;;;;;;;1.55;0.93;;;19.10;96.70;;;;;;4960587;28;20045;-76
2021/08/29 06:11:38;;;;;;;2.63;1.27;;;19.20;96.70;;;;;;4961577;28;20046;-77
2021/08/29 06:14:06;;;;;;;2.25;1.50;;;19.20;96.70;;;;;;4967730;28;20046;-78
2021/08/29 06:16:36;;;;;;;2.72;1.70;;;19.10;96.70;;;;;;4978520;28;20042;-78
2021/08/29 06:19:14;;;;;;;3.95;1.65;;;19.10;96.70;;;;;;4962203;28;20142;-77
2021/08/29 06:21:42;;;;;;;2.47;1.60;;;19.20;96.70;;;;;;4965757;28;20082;-78
2021/08/29 06:24:11;;;;;;;4.28;1.80;;;19.30;96.70;;;;;;4964112;28;20064;-77
2021/08/29 06:26:59;;;;;;;3.08;1.90;;;19.30;96.70;;;;;;4980258;28;20077;-77
2021/08/29 06:29:50;;;;;;;2.45;2.17;;;19.30;96.70;;;;;;4950721;28;20051;-78
2021/08/29 06:32:41;;;;;;;3.33;2.15;;;19.20;96.70;;;;;;4970853;28;20592;-77
2021/08/29 06:35:12;;;;;;;2.03;1.65;;;19.30;96.70;;;;;;4960689;28;20046;-77
2021/08/29 06:37:49;;;;;;;3.65;1.65;;;19.20;96.70;;;;;;4963792;28;20105;-78
2021/08/29 06:40:17;;;;;;;2.90;1.35;;;19.30;96.70;;;;;;4963645;28;20047;-78
2021/08/29 06:42:47;;;;;;;2.10;1.60;;;19.30;96.70;;;;;;4958520;28;20078;-77
2021/08/29 06:45:36;;;;;;;2.17;1.30;;;19.50;96.70;;;;;;4970427;28;20255;-78
2021/08/29 06:48:23;;;;;;;1.92;1.40;;;19.50;96.70;;;;;;4962994;28;20061;-77
2021/08/29 06:51:10;;;;;;;1.58;1.33;;;19.70;96.70;;;;;;4976631;28;20185;-77
2021/08/29 06:53:57;;;;;;;2.38;1.60;;;19.70;96.70;;;;;;4964997;28;20062;-77
2021/08/29 06:56:54;;;;;;;3.08;1.10;;;19.80;96.70;;;;;;4964504;28;20409;-77
2021/08/29 06:59:29;;;;;;;1.35;0.68;;;19.90;96.70;;;;;;4980238;28;20042;-78
2021/08/29 07:01:58;;;;;;;1.65;0.80;;;20.00;96.70;;;;;;4960294;28;20042;-77
2021/08/29 07:04:29;;;;;;;2.28;1.33;;;20.00;96.70;;;;;;4961742;28;20050;-78
2021/08/29 07:07:02;;;;;;;2.17;1.38;;;20.00;96.70;;;;;;4960234;28;20049;-86
2021/08/29 07:09:50;;;;;;;6.68;3.60;;;20.10;96.70;;;;;;4964621;28;20058;-89
2021/08/29 07:12:18;;;;;;;11.63;6.85;;;20.30;96.70;;;;;;4973586;28;20046;-90
2021/08/29 07:14:54;;;;;;;13.00;7.95;;;20.30;96.70;;;;;;4961494;28;20055;-88
2021/08/29 07:17:22;;;;;;;12.48;7.53;;;20.40;96.70;;;;;;4963761;28;20493;-85
2021/08/29 07:19:52;;;;;;;11.77;7.80;;;20.40;96.70;;;;;;4962493;28;20055;-84
2021/08/29 07:22:39;;;;;;;17.55;11.57;;;20.60;96.70;;;;;;4961225;28;20747;-83
2021/08/29 07:25:26;;;;;;;21.25;14.02;;;20.60;96.70;;;;;;4964651;28;20637;-83
2021/08/29 07:28:13;;;;;;;22.92;15.80;;;20.70;96.70;;;;;;4966437;28;20054;-84
2021/08/29 07:31:01;;;;;;;;;;;20.70;96.70;;;;;;4965967;28;20113;-81
2021/08/29 07:33:29;;;;;;;23.70;13.23;;;20.90;96.70;;;;;;4963335;28;19926;-81
2021/08/29 07:36:11;;;;;;;26.52;16.08;;;21.00;96.70;;;;;;4950589;28;20058;-85
2021/08/29 07:38:40;;;;;;;22.13;13.15;;;21.00;96.70;;;;;;4979174;28;20054;-79
2021/08/29 07:41:09;;;;;;;17.58;10.10;;;21.10;96.70;;;;;;4948494;28;20038;-82
2021/08/29 07:43:38;;;;;;;13.10;7.30;;;21.20;96.70;;;;;;4946815;28;20409;-82
2021/08/29 07:46:10;;;;;;;12.70;7.22;;;21.20;96.70;;;;;;4956823;28;20079;-82
2021/08/29 07:48:38;;;;;;;13.25;7.07;;;21.20;96.70;;;;;;4954879;28;20051;-83
2021/08/29 07:51:08;;;;;;;11.32;5.85;;;21.30;96.70;;;;;;4962857;28;20043;-85
2021/08/29 07:53:55;;;;;;;6.20;3.45;;;21.40;96.70;;;;;;4948126;28;20094;-85
2021/08/29 07:56:44;;;;;;;6.10;2.20;;;21.50;96.70;;;;;;4958210;28;20057;-85
2021/08/29 07:59:12;;;;;;;3.30;1.50;;;21.60;96.70;;;;;;4970203;28;20066;-85
2021/08/29 08:01:42;;;;;;;2.55;1.42;;;21.70;96.70;;;;;;4949757;28;20043;-85
2021/08/29 08:04:29;;;;;;;2.88;1.45;;;21.70;95.80;;;;;;4963460;28;20073;-85
2021/08/29 10:45:35;;;;;;;3.00;0.50;;;26.60;79.00;;;;;;4954641;28;20539;-79
2021/08/29 10:48:39;;;;;;;2.30;0.82;;;26.80;78.60;;;;;;4941842;28;20055;-76
2021/08/29 10:51:23;;;;;;;1.23;0.68;;;26.80;77.80;;;;;;4961304;28;20038;-75
2021/08/29 10:53:53;;;;;;;0.80;0.60;;;26.80;77.60;;;;;;4945140;28;20296;-75
2021/08/29 10:56:33;;;;;;;1.30;0.52;;;26.90;77.10;;;;;;4961988;28;20580;-75
2021/08/29 10:59:28;;;;;;;1.33;0.90;;;27.10;77.40;;;;;;4962975;28;20051;-75
2021/08/29 11:02:13;;;;;;;1.65;1.00;;;27.30;77.50;;;;;;4944723;28;20465;-75
2021/08/29 11:04:49;;;;;;;1.40;0.80;;;27.40;76.30;;;;;;4966339;28;20039;-75
2021/08/29 11:07:52;;;;;;;1.60;0.68;;;27.40;75.50;;;;;;4960277;28;20054;-75
2021/08/29 11:10:46;;;;;;;4.28;2.17;;;27.30;75.50;;;;;;4963644;28;20047;-75
2021/08/29 11:13:39;;;;;;;1.17;0.50;;;27.30;75.60;;;;;;4975495;28;20050;-77
2021/08/29 11:16:30;;;;;;;1.50;0.60;;;27.40;74.20;;;;;;4960251;28;20486;-75
2021/08/29 11:19:20;;;;;;;0.70;0.50;;;27.40;74.90;;;;;;4965970;28;20051;-75
2021/08/29 11:22:16;;;;;;;0.68;0.52;;;27.60;74.10;;;;;;4963056;28;20148;-74
2021/08/29 11:25:07;;;;;;;0.50;0.30;;;27.70;74.30;;;;;;4961221;28;20401;-76
2021/08/29 11:27:52;;;;;;;0.70;0.30;;;27.90;73.20;;;;;;4963396;28;20052;-76
2021/08/29 11:30:45;;;;;;;2.35;0.30;;;27.90;73.10;;;;;;4958762;28;20159;-76
2021/08/29 11:33:26;;;;;;;0.95;0.60;;;28.00;72.80;;;;;;4970243;28;20055;-76
2021/08/29 11:36:05;;;;;;;0.70;0.32;;;28.10;72.40;;;;;;4957948;28;20109;-79
2021/08/29 11:38:57;;;;;;;1.00;0.43;;;28.10;72.80;;;;;;4962624;28;20055;-79
2021/08/29 11:41:26;;;;;;;0.75;0.30;;;28.30;72.30;;;;;;4946939;28;20043;-78
2021/08/29 11:43:57;;;;;;;0.90;0.35;;;28.60;72.70;;;;;;4951901;28;20043;-78
2021/08/29 11:46:39;;;;;;;0.55;0.30;;;28.60;70.90;;;;;;4959589;28;20042;-85
2021/08/29 11:49:14;;;;;;;0.43;0.30;;;28.30;70.70;;;;;;4959252;28;20482;-76
2021/08/29 11:51:55;;;;;;;0.50;0.30;;;28.40;71.20;;;;;;4962014;28;20045;-76
2021/08/29 11:54:29;;;;;;;0.40;0.20;;;28.50;71.80;;;;;;4972473;28;20043;-76
2021/08/29 11:57:00;;;;;;;1.30;0.40;;;28.70;72.70;;;;;;4978588;28;20042;-77
2021/08/29 11:59:31;;;;;;;1.83;0.40;;;28.80;70.60;;;;;;4989772;28;20068;-76
2021/08/29 12:02:09;;;;;;;1.73;0.60;;;28.80;72.00;;;;;;4963454;28;20051;-76
2021/08/29 12:04:53;;;;;;;1.10;0.57;;;28.90;71.60;;;;;;4956744;28;20138;-76
2021/08/29 12:07:47;;;;;;;0.57;0.40;;;28.90;70.70;;;;;;4967084;28;20077;-76
2021/08/29 12:10:35;;;;;;;0.40;0.30;;;28.70;70.50;;;;;;4958797;28;20437;-76
2021/08/29 12:13:26;;;;;;;0.40;0.30;;;28.80;70.80;;;;;;4959989;28;20042;-76
2021/08/29 12:16:14;;;;;;;0.55;0.30;;;29.10;70.00;;;;;;4965659;28;20054;-76
2021/08/29 12:19:11;;;;;;;0.25;0.20;;;29.40;69.80;;;;;;4967637;28;20198;-75
2021/08/29 12:22:10;;;;;;;0.80;0.50;;;29.50;69.90;;;;;;4987022;28;20169;-76
2021/08/29 12:24:59;;;;;;;0.40;0.30;;;29.10;68.60;;;;;;4959973;28;20413;-81
2021/08/29 12:27:28;;;;;;;0.55;0.30;;;29.10;70.00;;;;;;4945960;28;20061;-80
2021/08/29 12:30:03;;;;;;;0.88;0.40;;;29.30;69.80;;;;;;4947314;28;20408;-81
2021/08/29 12:32:35;;;;;;;0.52;0.30;;;29.40;69.70;;;;;;4964790;28;20409;-80
2021/08/29 12:35:08;;;;;;;0.60;0.40;;;29.80;70.00;;;;;;4967860;28;20049;-80
2021/08/29 12:37:43;;;;;;;0.90;0.40;;;30.00;69.10;;;;;;4979350;28;20145;-80
2021/08/29 12:40:16;;;;;;;0.77;0.40;;;29.70;69.30;;;;;;4950567;28;20074;-82
2021/08/29 12:42:48;;;;;;;1.92;0.35;;;29.50;69.50;;;;;;4958816;28;20054;-79
2021/08/29 12:45:34;;;;;;;0.32;0.22;;;29.40;69.10;;;;;;4966895;28;20074;-79
2021/08/29 12:48:03;;;;;;;1.10;0.43;;;29.20;68.70;;;;;;4965173;28;20054;-78
2021/08/29 12:50:37;;;;;;;0.35;0.30;;;29.40;70.10;;;;;;4965849;28;20542;-78
2021/08/29 12:53:10;;;;;;;0.65;0.35;;;29.70;68.80;;;;;;4948002;28;20050;-81
2021/08/29 12:55:48;;;;;;;0.63;0.40;;;29.80;69.50;;;;;;4965007;28;20059;-79
2021/08/29 12:58:19;;;;;;;1.17;0.50;;;29.20;69.40;;;;;;4990828;28;20054;-81
2021/08/29 13:00:51;;;;;;;0.82;0.32;;;29.10;69.70;;;;;;4963496;28;20481;-84
2021/08/29 13:03:20;;;;;;;0.88;0.50;;;29.00;69.70;;;;;;4964029;28;20042;-81
2021/08/29 13:05:52;;;;;;;0.52;0.30;;;29.10;69.70;;;;;;4962524;28;20039;-84
2021/08/29 13:08:39;;;;;;;1.17;0.30;;;29.30;68.90;;;;;;4948543;28;20082;-81
2021/08/29 13:11:09;;;;;;;;;;;29.30;68.50;;;;;;4987302;28;20445;-87
2021/08/29 13:13:43;;;;;;;0.20;0.20;;;29.50;68.50;;;;;;4965635;28;19960;-85
2021/08/29 13:16:19;;;;;;;0.52;0.30;;;29.10;68.90;;;;;;4959181;28;20034;-86
2021/08/29 13:19:00;;;;;;;0.65;0.30;;;28.90;69.10;;;;;;4951207;28;20138;-84
2021/08/29 13:21:35;;;;;;;1.80;0.40;;;28.70;70.10;;;;;;4959260;28;20498;-86
2021/08/29 13:24:24;;;;;;;0.60;0.50;;;28.60;69.90;;;;;;4961076;28;20050;-86
2021/08/29 13:26:56;;;;;;;0.63;0.40;;;28.40;70.40;;;;;;4960215;28;20047;-88
2021/08/29 13:29:36;;;;;;;1.38;0.38;;;28.30;70.20;;;;;;4954234;28;20109;-86
2021/08/29 13:32:05;;;;;;;0.63;0.50;;;28.50;70.50;;;;;;4948358;28;20097;-86
2021/08/29 13:34:33;;;;;;;0.45;0.30;;;28.80;70.80;;;;;;4972374;28;20062;-87
2021/08/29 13:37:03;;;;;;;0.30;0.30;;;29.10;68.70;;;;;;4965112;28;20042;-85
2021/08/29 13:39:32;;;;;;;1.02;0.40;;;29.30;68.60;;;;;;4958657;28;20043;-80
2021/08/29 13:42:21;;;;;;;0.38;0.30;;;29.70;68.90;;;;;;4975059;28;20043;-80
2021/08/29 13:44:54;;;;;;;0.70;0.43;;;30.10;67.70;;;;;;4941725;28;20911;-80
2021/08/29 13:47:22;;;;;;;0.50;0.40;;;30.10;67.50;;;;;;4962632;28;20185;-80
2021/08/29 13:49:51;;;;;;;0.75;0.38;;;30.20;67.50;;;;;;4963592;28;20486;-79
2021/08/29 13:52:21;;;;;;;0.70;0.30;;;30.60;66.80;;;;;;4983228;28;20047;-77
2021/08/29 13:54:50;;;;;;;0.60;0.30;;;30.30;66.90;;;;;;4962689;28;20110;-78
2021/08/29 13:57:20;;;;;;;0.50;0.30;;;30.00;66.80;;;;;;4978840;28;20070;-78
2021/08/29 13:59:49;;;;;;;0.75;0.30;;;29.70;67.10;;;;;;4954692;28;20490;-77
2021/08/29 14:02:17;;;;;;;0.50;0.40;;;29.50;67.60;;;;;;4962153;28;20109;-77
2021/08/29 14:04:46;;;;;;;0.93;0.35;;;29.40;68.50;;;;;;4958966;28;20043;-77
2021/08/29 14:07:14;;;;;;;1.80;0.35;;;29.10;68.60;;;;;;4964337;28;20039;-79
2021/08/29 14:09:42;;;;;;;0.43;0.40;;;28.90;69.00;;;;;;4971246;28;20552;-79
2021/08/29 14:12:11;;;;;;;1.45;0.43;;;28.60;69.20;;;;;;4963007;28;20051;-90
2021/08/29 14:14:41;;;;;;;1.13;0.60;;;28.80;70.00;;;;;;4961743;28;20031;-84
2021/08/29 14:17:09;;;;;;;1.17;0.52;;;29.70;69.40;;;;;;4966132;28;20062;-82
2021/08/29 14:19:37;;;;;;;1.77;0.60;;;29.90;69.50;;;;;;4961203;28;20038;-81
2021/08/29 14:22:06;;;;;;;1.48;0.50;;;30.60;69.70;;;;;;4966349;28;20049;-83
2021/08/29 14:24:37;;;;;;;1.17;0.52;;;31.10;69.50;;;;;;4948327;28;20047;-84
2021/08/29 14:27:08;;;;;;;0.50;0.47;;;31.40;68.80;;;;;;4963504;28;20049;-82
2021/08/29 14:29:36;;;;;;;1.30;0.60;;;31.20;67.90;;;;;;4960472;28;20051;-82
2021/08/29 14:32:07;;;;;;;0.40;0.40;;;30.00;69.30;;;;;;4958797;28;20063;-81
2021/08/29 14:34:36;;;;;;;1.90;0.50;;;29.50;70.40;;;;;;4962586;28;20080;-82
2021/08/29 14:37:04;;;;;;;1.48;0.57;;;29.20;70.60;;;;;;4965162;28;20062;-85
2021/08/29 14:39:33;;;;;;;0.80;0.60;;;29.00;71.60;;;;;;4969949;28;20065;-84
2021/08/29 14:42:03;;;;;;;0.60;0.43;;;29.10;72.00;;;;;;4966998;28;20042;-86
2021/08/29 14:44:32;;;;;;;0.80;0.63;;;28.80;72.10;;;;;;4962708;28;20050;-84
2021/08/29 14:47:00;;;;;;;0.95;0.50;;;28.60;73.10;;;;;;4967380;28;20133;-84
2021/08/29 14:49:30;;;;;;;1.35;0.57;;;28.40;73.10;;;;;;4961548;28;20594;-83
2021/08/29 14:51:59;;;;;;;0.82;0.50;;;28.30;73.80;;;;;;4997712;28;20057;-86
2021/08/29 14:54:27;;;;;;;0.98;0.60;;;28.40;73.60;;;;;;4946095;28;20051;-85
2021/08/29 14:56:55;;;;;;;0.73;0.60;;;28.20;74.20;;;;;;4940876;28;20109;-85
2021/08/29 14:59:25;;;;;;;1.05;0.60;;;28.10;75.00;;;;;;4968409;28;20049;-85
2021/08/29 15:01:53;;;;;;;0.80;0.68;;;28.00;76.20;;;;;;4948414;28;20295;-82
2021/08/29 15:04:22;;;;;;;1.33;0.68;;;28.20;76.30;;;;;;4947255;28;20035;-88
2021/08/29 15:06:52;;;;;;;0.90;0.52;;;28.60;74.90;;;;;;4961373;28;20047;-90
2021/08/29 15:09:21;;;;;;;2.47;0.75;;;29.90;73.10;;;;;;4969453;28;20532;-87
2021/08/29 15:11:49;;;;;;;0.90;0.80;;;31.10;71.60;;;;;;4978074;28;20137;-86
2021/08/29 15:14:17;;;;;;;0.50;0.50;;;32.00;70.50;;;;;;4953561;28;20038;-83
2021/08/29 15:16:46;;;;;;;2.30;0.80;;;32.40;70.60;;;;;;4956906;28;20043;-82
2021/08/29 15:19:15;;;;;;;1.48;1.00;;;32.00;71.90;;;;;;4971201;28;20130;-81
2021/08/29 15:21:43;;;;;;;1.27;0.70;;;31.70;72.30;;;;;;4954898;28;20424;-84
2021/08/29 15:24:14;;;;;;;1.20;0.75;;;32.00;71.70;;;;;;4969143;28;20416;-81
2021/08/29 15:26:42;;;;;;;1.33;0.80;;;31.00;73.20;;;;;;4998357;28;20081;-85
2021/08/29 15:29:10;;;;;;;1.85;1.00;;;30.20;74.50;;;;;;4970023;28;20042;-87
2021/08/29 15:31:39;;;;;;;1.17;0.70;;;29.50;76.30;;;;;;4970637;28;20098;-87
2021/08/29 15:34:08;;;;;;;1.27;0.70;;;28.90;76.70;;;;;;4970847;28;20101;-82
2021/08/29 15:36:36;;;;;;;0.98;0.88;;;28.70;77.90;;;;;;4951181;28;20051;-85
2021/08/29 15:39:05;;;;;;;2.08;0.70;;;28.20;77.90;;;;;;4985014;28;20043;-83
2021/08/29 15:41:34;;;;;;;1.48;0.90;;;28.00;79.10;;;;;;4951752;28;20090;-82
2021/08/29 15:44:03;;;;;;;1.10;0.65;;;27.90;79.20;;;;;;4974864;28;20448;-85
2021/08/29 15:46:31;;;;;;;1.02;0.70;;;27.80;79.30;;;;;;4970288;28;20069;-86
2021/08/29 15:49:00;;;;;;;1.38;0.70;;;27.60;79.80;;;;;;4971957;28;20086;-85
2021/08/29 15:51:31;;;;;;;1.45;0.70;;;27.50;80.50;;;;;;4967805;28;20070;-86
2021/08/29 15:54:00;;;;;;;1.17;0.65;;;27.40;81.10;;;;;;4972453;28;20169;-81
2021/08/29 15:56:29;;;;;;;1.38;0.80;;;27.70;80.70;;;;;;4969998;28;20050;-82
2021/08/29 15:58:59;;;;;;;1.25;0.80;;;28.90;78.50;;;;;;4979984;28;20125;-87
2021/08/29 16:01:27;;;;;;;2.40;0.90;;;29.50;77.30;;;;;;4969793;28;20055;-84
2021/08/29 16:03:56;;;;;;;1.08;0.50;;;29.80;76.80;;;;;;4970058;28;20049;-90
2021/08/29 16:06:24;;;;;;;1.88;1.10;;;29.90;76.80;;;;;;4976195;28;20066;-85
2021/08/29 16:08:53;;;;;;;1.85;0.98;;;30.60;76.30;;;;;;4964652;28;20120;-83